Time;durP1;ratioP1;P1;durP2;ratioP2;P2;SDS_P1;SDS_P2;PMS_P1;PMS_P2;Temp;Humidity;BMP_temperature;BMP_pressure;BME280_temperature;BME280_humidity;BME280_pressure;Samples;Min_cycle;Max_cycle;Signal;HPM_P1;HPM_P2
2022/01/28 00:02:30;;;;;;;1.70;0.70;;;;;;;3.44;86.63;99144.78;5042010;28;20044;-52
2022/01/28 00:04:57;;;;;;;;;;;;;;;3.39;86.60;99140.56;5042864;28;20048;-49
2022/01/28 00:07:23;;;;;;;;;;;;;;;3.39;86.33;99153.38;5043164;28;19928;-51
2022/01/28 00:09:50;;;;;;;2.67;0.63;;;;;;;3.39;86.68;99145.69;5045891;28;19925;-51
2022/01/28 00:12:16;;;;;;;1.50;0.40;;;;;;;3.40;86.77;99147.38;5042337;28;20055;-51
2022/01/28 00:14:49;;;;;;;1.60;0.50;;;;;;;3.39;86.05;99145.69;5044890;28;20099;-50
2022/01/28 00:18:03;;;;;;;3.50;0.60;;;;;;;3.34;86.90;99142.28;5043081;28;20492;-51
2022/01/28 00:20:59;;;;;;;2.13;0.57;;;;;;;3.33;86.96;99145.72;5041936;28;20552;-49
2022/01/28 00:37:12;;;;;;;1.95;0.40;;;;;;;3.09;87.13;99139.81;5043499;28;20793;-49
2022/01/28 00:39:38;;;;;;;2.58;0.68;;;;;;;3.10;87.27;99141.50;5044188;28;20049;-48
2022/01/28 00:42:06;;;;;;;2.10;0.55;;;;;;;3.09;87.63;99147.50;5044489;28;20064;-50
2022/01/28 00:44:32;;;;;;;2.97;0.77;;;;;;;3.06;87.43;99142.38;5040480;28;20053;-50
2022/01/28 00:46:59;;;;;;;2.40;0.57;;;;;;;3.05;87.34;99156.03;5044246;28;20049;-50
2022/01/28 00:49:27;;;;;;;2.45;0.73;;;;;;;3.02;87.37;99148.38;5044634;28;20052;-51
2022/01/28 00:51:53;;;;;;;2.42;1.02;;;;;;;3.01;87.66;99158.63;5040495;28;20052;-48
2022/01/28 00:54:20;;;;;;;1.20;0.38;;;;;;;2.98;87.98;99154.34;5041336;28;20060;-50
2022/01/28 00:56:48;;;;;;;0.80;0.22;;;;;;;2.97;87.98;99162.03;5043604;28;20477;-50
2022/01/28 00:59:15;;;;;;;1.33;0.50;;;;;;;2.94;88.41;99157.78;5042929;28;20083;-50
2022/01/28 01:01:42;;;;;;;2.47;0.47;;;;;;;2.93;88.38;99158.63;5039643;28;20067;-48
2022/01/28 01:04:09;;;;;;;0.75;0.40;;;;;;;2.91;87.92;99160.34;5043440;28;20049;-52
2022/01/28 01:06:37;;;;;;;1.33;0.43;;;;;;;2.90;88.39;99156.09;5045186;28;20051;-48
2022/01/28 01:09:04;;;;;;;1.35;0.30;;;;;;;2.89;88.50;99154.38;5042273;28;20745;-48
2022/01/28 01:11:30;;;;;;;2.03;0.40;;;;;;;2.87;88.61;99156.09;5040354;28;20080;-49
2022/01/28 01:13:58;;;;;;;1.00;0.40;;;;;;;2.85;88.40;99157.81;5042655;28;20060;-48
2022/01/28 01:16:30;;;;;;;1.17;0.40;;;;;;;2.84;89.05;99158.66;5044627;28;20045;-51
2022/01/28 01:19:13;;;;;;;1.00;0.70;;;;;;;2.85;89.32;99175.72;5043423;28;20053;-50
2022/01/28 01:21:42;;;;;;;1.52;0.35;;;;;;;2.86;89.41;99169.75;5041857;28;20709;-51
2022/01/28 01:24:19;;;;;;;0.73;0.40;;;;;;;2.89;89.44;99184.25;5041438;28;20061;-48
2022/01/28 01:26:46;;;;;;;1.15;0.50;;;;;;;2.89;89.07;99177.41;5044190;28;20057;-51
2022/01/28 01:29:13;;;;;;;2.05;0.52;;;;;;;2.90;89.85;99183.41;5042334;28;20425;-51
2022/01/28 01:31:43;;;;;;;1.98;0.60;;;;;;;2.93;89.55;99181.69;5042491;28;20065;-54
2022/01/28 01:34:13;;;;;;;1.48;0.70;;;;;;;2.95;89.74;99190.19;5042181;28;20542;-49
2022/01/28 01:36:42;;;;;;;2.80;0.85;;;;;;;2.96;89.86;99186.78;5041713;28;20160;-48
2022/01/28 01:39:10;;;;;;;3.50;0.68;;;;;;;2.99;89.97;99189.34;5043434;28;20482;-53
2022/01/28 01:41:42;;;;;;;1.73;0.50;;;;;;;3.03;89.95;99200.41;5042451;28;20126;-50
2022/01/28 01:44:18;;;;;;;1.95;0.60;;;;;;;3.05;90.51;99206.38;5042146;28;20079;-51
2022/01/28 01:47:09;;;;;;;2.60;0.60;;;;;;;3.09;90.43;99211.50;5042812;28;20079;-49
2022/01/28 01:52:17;;;;;;;3.42;0.90;;;;;;;3.17;90.28;99212.34;5042729;28;20536;-48
2022/01/28 01:54:45;;;;;;;3.60;0.73;;;;;;;3.22;90.92;99225.16;5042417;28;20063;-52
2022/01/28 01:57:13;;;;;;;4.43;1.25;;;;;;;3.27;90.66;99225.13;5043133;28;20533;-47
2022/01/28 01:59:41;;;;;;;1.83;0.80;;;;;;;3.32;91.31;99225.97;5042817;28;20044;-50
2022/01/28 02:02:08;;;;;;;3.95;1.40;;;;;;;3.37;91.55;99235.34;5038077;28;20393;-49
2022/01/28 02:04:35;;;;;;;3.47;0.73;;;;;;;3.43;91.44;99237.03;5040921;28;20045;-51
2022/01/28 02:07:03;;;;;;;2.60;0.63;;;;;;;3.47;91.57;99242.13;5041517;28;20041;-50
2022/01/28 02:09:31;;;;;;;3.58;0.80;;;;;;;3.53;91.57;99242.97;5042681;28;20540;-50
2022/01/28 02:11:58;;;;;;;3.90;0.70;;;;;;;3.56;91.25;99245.50;5040319;28;20040;-51
2022/01/28 02:14:24;;;;;;;4.50;0.68;;;;;;;3.61;90.59;99249.75;5041309;28;20057;-49
2022/01/28 02:16:51;;;;;;;2.80;0.60;;;;;;;3.63;90.71;99248.03;5041972;28;20049;-48
2022/01/28 02:19:17;;;;;;;6.78;1.02;;;;;;;3.69;91.18;99250.59;5040454;28;20144;-51
2022/01/28 02:21:49;;;;;;;3.20;0.75;;;;;;;3.70;90.52;99249.75;5041487;28;20149;-51
2022/01/28 02:24:19;;;;;;;4.15;1.10;;;;;;;3.71;90.72;99254.00;5043203;28;20154;-50
2022/01/28 02:26:46;;;;;;;2.10;0.68;;;;;;;3.74;90.15;99251.44;5043248;28;20063;-50
2022/01/28 02:29:15;;;;;;;3.58;1.02;;;;;;;3.76;89.99;99254.84;5041403;28;20048;-51
2022/01/28 02:31:43;;;;;;;2.92;0.77;;;;;;;3.77;90.47;99264.25;5040541;28;20064;-49
2022/01/28 02:34:11;;;;;;;2.85;0.55;;;;;;;3.76;89.89;99279.63;5038636;28;20526;-48
2022/01/28 02:36:39;;;;;;;2.65;0.55;;;;;;;3.76;90.08;99275.34;5039763;28;20049;-49
2022/01/28 02:39:07;;;;;;;2.55;0.52;;;;;;;3.76;89.93;99283.03;5039925;28;20063;-53
2022/01/28 02:41:38;;;;;;;1.58;0.50;;;;;;;3.73;89.87;99288.19;5042318;28;20049;-52
2022/01/28 02:44:14;;;;;;;3.28;0.85;;;;;;;3.72;89.69;99289.03;5039483;28;20053;-51
2022/01/28 02:46:53;;;;;;;1.00;0.40;;;;;;;3.68;90.11;99307.84;5039710;28;20145;-52
2022/01/28 02:49:20;;;;;;;1.80;0.55;;;;;;;3.65;89.78;99302.72;5038686;28;20053;-49
2022/01/28 02:51:46;;;;;;;1.17;0.40;;;;;;;3.63;89.85;99304.41;5038924;28;20053;-52
2022/01/28 02:54:16;;;;;;;0.75;0.30;;;;;;;3.62;89.75;99305.28;5041868;28;20059;-50
2022/01/28 02:56:49;;;;;;;2.80;0.40;;;;;;;3.61;89.91;99321.50;5042295;28;20577;-50
2022/01/28 02:59:16;;;;;;;2.63;0.20;;;;;;;3.56;89.24;99328.34;5039485;28;20756;-50
2022/01/28 03:01:42;;;;;;;1.38;0.20;;;;;;;3.55;89.09;99344.59;5038302;28;20127;-52
2022/01/28 03:04:12;;;;;;;1.75;0.40;;;;;;;3.53;89.42;99348.00;5042561;28;20053;-52
2022/01/28 03:06:39;;;;;;;2.08;0.20;;;;;;;3.47;89.09;99351.44;5042363;28;20051;-52
2022/01/28 03:09:14;;;;;;;0.43;0.20;;;;;;;3.43;88.86;99362.53;5041551;28;20048;-50
2022/01/28 03:11:57;;;;;;;0.43;0.20;;;;;;;3.41;89.35;99370.22;5040922;28;20437;-52
2022/01/28 03:14:35;;;;;;;0.15;0.10;;;;;;;3.35;89.27;99369.38;5039765;28;20053;-51
2022/01/28 03:17:09;;;;;;;0.63;0.20;;;;;;;3.31;88.78;99388.19;5042402;28;20478;-49
2022/01/28 03:19:50;;;;;;;0.55;0.10;;;;;;;3.22;88.66;99388.19;5041095;28;20055;-50
2022/01/28 03:22:16;;;;;;;0.73;0.30;;;;;;;3.16;88.82;99397.56;5038561;28;20084;-50
2022/01/28 03:24:47;;;;;;;0.35;0.20;;;;;;;3.10;88.65;99410.34;5040443;28;20440;-51
2022/01/28 03:27:26;;;;;;;0.70;0.30;;;;;;;3.06;88.99;99418.88;5045606;28;20045;-51
2022/01/28 03:29:53;;;;;;;0.47;0.30;;;;;;;3.02;88.80;99422.28;5044630;28;20045;-51
2022/01/28 03:32:20;;;;;;;1.50;0.50;;;;;;;2.98;88.67;99433.38;5044279;28;20709;-52
2022/01/28 03:34:46;;;;;;;1.08;0.35;;;;;;;2.94;88.79;99436.78;5040419;28;20092;-49
2022/01/28 03:37:14;;;;;;;0.70;0.30;;;;;;;2.88;89.19;99448.72;5046104;28;20394;-51
2022/01/28 03:39:40;;;;;;;1.00;0.60;;;;;;;2.80;88.62;99456.38;5043872;28;20067;-49
2022/01/28 03:42:07;;;;;;;0.45;0.30;;;;;;;2.78;88.96;99466.63;5044319;28;20084;-51
2022/01/28 03:44:35;;;;;;;0.73;0.40;;;;;;;2.73;89.10;99475.13;5045303;28;20045;-52
2022/01/28 03:47:02;;;;;;;2.22;0.43;;;;;;;2.69;89.55;99488.78;5044954;28;20044;-48
2022/01/28 03:49:29;;;;;;;6.10;0.80;;;;;;;2.63;89.21;99486.19;5044851;28;20045;-50
2022/01/28 03:51:55;;;;;;;4.95;1.48;;;;;;;2.59;89.73;99507.47;5045153;28;20063;-49
2022/01/28 03:54:22;;;;;;;5.28;0.95;;;;;;;2.56;89.56;99515.13;5043113;28;20052;-51
2022/01/28 03:56:48;;;;;;;5.82;1.60;;;;;;;2.46;89.02;99512.53;5045665;28;20052;-50
2022/01/28 03:59:15;;;;;;;3.10;0.82;;;;;;;2.41;89.27;99529.56;5045131;28;20060;-49
2022/01/28 04:01:45;;;;;;;2.53;0.70;;;;;;;2.38;89.00;99539.78;5044146;28;20067;-49
2022/01/28 04:12:26;;;;;;;1.73;0.57;;;;;;;2.15;89.24;99551.56;5042820;28;20060;-50
2022/01/28 04:15:06;;;;;;;2.58;0.70;;;;;;;2.10;89.44;99568.59;5040985;28;20072;-49
2022/01/28 04:17:34;;;;;;;2.25;0.45;;;;;;;2.03;89.55;99566.81;5042971;28;20045;-50
2022/01/28 04:20:01;;;;;;;0.38;0.28;;;;;;;1.96;89.43;99585.50;5044943;28;20053;-49
2022/01/28 04:22:28;;;;;;;1.83;0.43;;;;;;;1.89;89.71;99585.44;5043989;28;20052;-52
2022/01/28 04:24:55;;;;;;;2.15;0.40;;;;;;;1.85;89.35;99593.94;5044658;28;20049;-51
2022/01/28 04:27:21;;;;;;;0.73;0.20;;;;;;;1.79;89.68;99608.34;5044998;28;20053;-50
2022/01/28 04:29:48;;;;;;;0.38;0.20;;;;;;;1.75;89.45;99604.91;5043050;28;20875;-51
2022/01/28 04:32:14;;;;;;;2.72;0.40;;;;;;;1.68;89.87;99613.38;5043759;28;20052;-53
2022/01/28 04:34:42;;;;;;;1.08;0.35;;;;;;;1.61;89.85;99629.47;5042894;28;20049;-53
2022/01/28 04:37:21;;;;;;;1.65;0.35;;;;;;;1.58;90.33;99634.56;5044008;28;20470;-51
2022/01/28 04:39:52;;;;;;;0.47;0.20;;;;;;;1.53;90.19;99631.94;5043447;28;20080;-52
2022/01/28 04:42:33;;;;;;;0.73;0.30;;;;;;;1.49;90.30;99649.75;5043492;28;20056;-51
2022/01/28 04:45:06;;;;;;;2.00;0.50;;;;;;;1.46;90.78;99655.69;5040868;28;20060;-49
2022/01/28 04:47:40;;;;;;;2.08;0.52;;;;;;;1.43;90.85;99662.47;5044661;28;20073;-52
2022/01/28 04:50:17;;;;;;;2.05;0.60;;;;;;;1.42;90.86;99678.63;5043393;28;20053;-51
2022/01/28 04:55:44;;;;;;;0.90;0.32;;;;;;;1.40;91.73;99700.75;5044313;28;20055;-51
2022/01/28 04:58:22;;;;;;;1.00;0.40;;;;;;;1.40;91.50;99700.75;5044050;28;20044;-51
2022/01/28 05:01:12;;;;;;;1.42;0.40;;;;;;;1.41;91.59;99712.66;5043192;28;20777;-50
2022/01/28 05:03:54;;;;;;;1.73;0.57;;;;;;;1.40;91.41;99721.16;5041836;28;20053;-48
2022/01/28 05:09:50;;;;;;;1.75;0.65;;;;;;;1.38;91.66;99733.06;5029581;28;20049;-51
2022/01/28 05:23:28;;;;;;;1.20;0.50;;;;;;;1.38;92.16;99784.13;5042323;28;20056;-51
2022/01/28 05:26:25;;;;;;;1.70;0.80;;;;;;;1.40;92.12;99793.53;5040765;28;20102;-51
2022/01/28 05:28:52;;;;;;;2.90;0.90;;;;;;;1.41;92.46;99802.91;5040248;28;20060;-53
2022/01/28 05:31:19;;;;;;;1.45;0.60;;;;;;;1.42;92.39;99806.31;5044215;28;20053;-52
2022/01/28 05:33:46;;;;;;;1.67;0.80;;;;;;;1.41;92.42;99817.38;5043431;28;20053;-50
2022/01/28 05:36:13;;;;;;;1.40;0.57;;;;;;;1.43;92.48;99828.47;5042517;28;20045;-50
2022/01/28 05:38:41;;;;;;;1.42;0.40;;;;;;;1.43;91.97;99838.69;5039378;28;20061;-53
2022/01/28 05:41:08;;;;;;;2.92;0.60;;;;;;;1.42;92.40;99847.19;5042590;28;20057;-54
2022/01/28 05:43:34;;;;;;;1.15;0.43;;;;;;;1.43;92.53;99859.09;5039437;28;20053;-48
2022/01/28 05:46:01;;;;;;;1.30;0.50;;;;;;;1.44;92.44;99866.78;5040028;28;20052;-51
2022/01/28 05:48:27;;;;;;;2.65;0.75;;;;;;;1.44;92.88;99871.91;5038859;28;20501;-50
2022/01/28 05:50:54;;;;;;;2.90;0.60;;;;;;;1.44;92.52;99881.25;5043261;28;20497;-50
2022/01/28 05:53:20;;;;;;;2.83;0.50;;;;;;;1.45;92.86;99888.06;5043003;28;20053;-48
2022/01/28 05:55:48;;;;;;;2.13;0.60;;;;;;;1.46;92.77;99892.34;5039946;28;20061;-50
2022/01/28 05:58:15;;;;;;;3.63;0.80;;;;;;;1.47;92.73;99902.59;5040697;28;20426;-51
2022/01/28 06:00:42;;;;;;;1.02;0.40;;;;;;;1.49;92.87;99918.78;5041393;28;20524;-51
2022/01/28 06:03:09;;;;;;;2.45;0.70;;;;;;;1.51;92.81;99931.59;5040538;28;20473;-48
2022/01/28 06:05:35;;;;;;;2.00;0.65;;;;;;;1.52;92.78;99940.97;5041923;28;20180;-52
2022/01/28 06:08:02;;;;;;;1.33;0.50;;;;;;;1.53;92.05;99942.69;5042133;28;20064;-52
2022/01/28 06:10:29;;;;;;;1.88;0.57;;;;;;;1.51;92.64;99946.91;5041104;28;20060;-51
2022/01/28 06:12:56;;;;;;;1.58;0.40;;;;;;;1.54;92.64;99969.94;5042703;28;20500;-51
2022/01/28 06:15:24;;;;;;;1.33;0.32;;;;;;;1.56;92.81;99965.72;5040474;28;20064;-51
2022/01/28 06:17:50;;;;;;;1.58;0.50;;;;;;;1.60;92.47;99985.41;5042273;28;20052;-51
2022/01/28 06:20:19;;;;;;;2.13;0.50;;;;;;;1.60;92.45;99985.41;5042280;28;20074;-47
2022/01/28 06:22:46;;;;;;;1.17;0.50;;;;;;;1.61;92.39;99997.34;5040691;28;20056;-50
2022/01/28 06:25:14;;;;;;;1.27;0.50;;;;;;;1.62;92.37;100006.72;5043120;28;20499;-48
2022/01/28 06:27:41;;;;;;;1.77;0.73;;;;;;;1.64;92.64;100002.50;5042999;28;20427;-49
2022/01/28 06:30:10;;;;;;;3.28;1.10;;;;;;;1.65;92.05;100014.44;5042176;28;20053;-47
2022/01/28 06:32:37;;;;;;;1.75;0.60;;;;;;;1.68;92.07;100016.19;5035712;28;20282;-51
2022/01/28 06:35:08;;;;;;;2.83;0.47;;;;;;;1.70;92.56;100022.16;5039569;28;20053;-48
2022/01/28 06:37:35;;;;;;;2.55;0.70;;;;;;;1.70;92.29;100028.13;5041567;28;20056;-49
2022/01/28 06:40:01;;;;;;;1.83;0.68;;;;;;;1.74;92.14;100032.47;5041674;28;20052;-51
2022/01/28 06:42:28;;;;;;;2.35;0.70;;;;;;;1.76;91.86;100046.13;5040967;28;20394;-49
2022/01/28 06:44:54;;;;;;;4.22;0.85;;;;;;;1.77;91.85;100060.63;5043266;28;20673;-49
2022/01/28 06:47:22;;;;;;;1.63;0.60;;;;;;;1.80;91.26;100063.22;5042620;28;20090;-49
2022/01/28 06:49:48;;;;;;;4.40;1.10;;;;;;;1.83;91.45;100070.94;5041783;28;20063;-50
2022/01/28 06:52:15;;;;;;;5.25;0.90;;;;;;;1.86;91.56;100068.44;5042679;28;20060;-48
2022/01/28 06:54:41;;;;;;;2.67;0.98;;;;;;;1.84;91.65;100082.88;5041856;28;20048;-50
2022/01/28 06:57:08;;;;;;;2.45;0.85;;;;;;;1.88;90.92;100078.69;5040220;28;20053;-49
2022/01/28 06:59:34;;;;;;;3.80;0.77;;;;;;;1.92;90.61;100064.25;5043355;28;20053;-49
2022/01/28 07:02:01;;;;;;;3.13;1.00;;;;;;;1.92;91.01;100105.16;5043509;28;20091;-50
2022/01/28 07:04:28;;;;;;;3.25;0.80;;;;;;;1.94;90.80;100108.59;5045540;28;20267;-54
2022/01/28 07:06:55;;;;;;;4.45;0.90;;;;;;;1.96;90.30;100123.09;5038014;28;20052;-47
2022/01/28 07:09:21;;;;;;;2.95;0.73;;;;;;;1.97;90.39;100129.09;5038938;28;20065;-53
2022/01/28 07:11:48;;;;;;;3.78;0.80;;;;;;;1.99;90.09;100122.31;5026199;28;20061;-51
2022/01/28 07:14:15;;;;;;;3.38;0.90;;;;;;;2.01;90.24;100130.84;5026968;28;20053;-49
2022/01/28 07:16:41;;;;;;;3.35;1.08;;;;;;;1.98;90.14;100146.16;5028928;28;20073;-49
2022/01/28 07:19:09;;;;;;;4.10;1.00;;;;;;;2.01;89.69;100147.06;5029755;28;20053;-53
2022/01/28 07:21:37;;;;;;;3.08;0.80;;;;;;;2.02;89.70;100163.25;5025926;28;20470;-52
2022/01/28 07:24:04;;;;;;;3.38;0.98;;;;;;;2.04;89.64;100172.66;5030103;28;20514;-51
2022/01/28 07:26:30;;;;;;;3.67;1.42;;;;;;;2.04;88.96;100176.91;5030054;28;20406;-48
2022/01/28 07:28:57;;;;;;;5.07;1.25;;;;;;;2.06;88.89;100182.91;5025495;28;20722;-52
2022/01/28 07:31:23;;;;;;;3.85;0.90;;;;;;;2.07;89.29;100182.09;5021441;28;20057;-47
2022/01/28 07:33:53;;;;;;;3.05;1.00;;;;;;;2.08;88.48;100187.25;5027254;28;20069;-51
2022/01/28 07:36:19;;;;;;;3.13;0.70;;;;;;;2.06;87.97;100211.91;5025646;28;20073;-50
2022/01/28 07:38:50;;;;;;;8.02;1.05;;;;;;;2.06;88.49;100216.16;5031930;28;20429;-51
2022/01/28 07:41:19;;;;;;;3.75;0.80;;;;;;;2.05;87.64;100224.66;5025820;28;20049;-54
2022/01/28 07:43:48;;;;;;;2.53;1.10;;;;;;;2.05;88.24;100234.88;5032414;28;20053;-56
2022/01/28 07:46:15;;;;;;;2.63;0.70;;;;;;;2.04;86.94;100238.28;5031571;28;20060;-57
2022/01/28 07:48:45;;;;;;;4.25;0.82;;;;;;;2.06;87.68;100251.94;5036430;28;20523;-56
2022/01/28 07:51:12;;;;;;;2.10;0.50;;;;;;;2.10;87.51;100253.75;5029677;28;20081;-57
2022/01/28 07:53:39;;;;;;;6.15;1.30;;;;;;;2.12;86.84;100267.44;5030399;28;20501;-49
2022/01/28 07:56:08;;;;;;;2.45;0.77;;;;;;;2.14;87.40;100260.66;5034545;28;20061;-47
2022/01/28 07:58:34;;;;;;;5.47;1.27;;;;;;;2.16;86.42;100279.44;5031972;28;20048;-48
2022/01/28 08:01:01;;;;;;;1.60;0.65;;;;;;;2.19;85.98;100297.38;5030317;28;20402;-48
2022/01/28 08:03:28;;;;;;;5.60;0.77;;;;;;;2.24;86.24;100308.56;5029057;28;20061;-54
2022/01/28 08:06:43;;;;;;;5.50;1.25;;;;;;;2.26;86.21;100304.34;5033441;28;20045;-52
2022/01/28 08:09:09;;;;;;;2.20;0.65;;;;;;;2.29;86.64;100322.28;5000005;28;20517;-50
2022/01/28 08:11:45;;;;;;;3.05;0.80;;;;;;;2.34;86.49;100336.03;5027319;28;20410;-53
2022/01/28 08:14:13;;;;;;;1.88;0.60;;;;;;;2.40;86.11;100331.03;5025008;28;20041;-55
2022/01/28 08:16:40;;;;;;;2.42;0.95;;;;;;;2.43;85.92;100341.31;5023609;28;20053;-57
2022/01/28 08:19:07;;;;;;;2.88;1.05;;;;;;;2.41;85.49;100353.22;5025179;28;20133;-50
2022/01/28 08:21:34;;;;;;;3.85;0.90;;;;;;;2.45;86.26;100360.09;5028143;28;20051;-49
2022/01/28 08:24:00;;;;;;;3.95;0.95;;;;;;;2.47;85.92;100368.66;5027692;28;20143;-47
2022/01/28 08:26:28;;;;;;;2.33;1.13;;;;;;;2.49;85.76;100377.22;5024005;28;20487;-48
2022/01/28 08:28:56;;;;;;;2.83;1.00;;;;;;;2.48;85.84;100370.41;5027596;28;20418;-53
2022/01/28 08:31:25;;;;;;;2.92;1.00;;;;;;;2.47;85.71;100384.03;5027530;28;20049;-53
2022/01/28 08:33:52;;;;;;;3.55;1.13;;;;;;;2.46;85.13;100382.31;5026096;28;20045;-52
2022/01/28 08:36:19;;;;;;;3.47;1.10;;;;;;;2.46;84.70;100392.53;5025204;28;20144;-52
2022/01/28 08:38:48;;;;;;;5.30;1.15;;;;;;;2.47;85.30;100393.41;5027874;28;20400;-50
2022/01/28 08:41:15;;;;;;;5.63;1.10;;;;;;;2.49;85.42;100396.84;5024083;28;20068;-55
2022/01/28 08:43:45;;;;;;;3.80;1.20;;;;;;;2.52;85.05;100394.34;5024391;28;20095;-52
2022/01/28 08:46:13;;;;;;;5.93;1.17;;;;;;;2.58;84.79;100420.03;5025556;28;20473;-57
2022/01/28 08:48:40;;;;;;;2.83;1.17;;;;;;;2.61;84.89;100426.94;5027778;28;20042;-55
2022/01/28 08:51:45;;;;;;;3.58;1.10;;;;;;;2.64;84.90;100427.00;5028708;28;20107;-52
2022/01/28 08:54:12;;;;;;;4.35;1.08;;;;;;;2.67;85.64;100437.28;5025982;28;20045;-52
2022/01/28 08:56:38;;;;;;;4.80;1.40;;;;;;;2.73;84.79;100437.41;5025101;28;20068;-52
2022/01/28 08:59:05;;;;;;;1.88;0.90;;;;;;;2.75;84.76;100430.63;5023399;28;20609;-52
2022/01/28 09:01:33;;;;;;;2.08;1.00;;;;;;;2.81;84.01;100451.19;5025359;28;20045;-54
2022/01/28 09:03:59;;;;;;;3.85;1.10;;;;;;;2.88;84.20;100458.16;5024047;28;20049;-56
2022/01/28 09:06:26;;;;;;;2.78;1.30;;;;;;;2.97;83.52;100462.56;5024438;28;20063;-48
2022/01/28 09:08:59;;;;;;;3.88;1.25;;;;;;;3.00;83.34;100471.19;5023464;28;20041;-52
2022/01/28 09:11:45;;;;;;;4.85;1.60;;;;;;;3.04;83.51;100493.44;5027452;28;20057;-51
2022/01/28 09:14:21;;;;;;;3.03;1.33;;;;;;;3.02;82.66;100500.22;5024501;28;20053;-49
2022/01/28 09:16:49;;;;;;;2.75;1.00;;;;;;;3.02;82.67;100501.94;5021395;28;20049;-49
2022/01/28 09:19:21;;;;;;;2.92;0.90;;;;;;;3.07;82.31;100501.19;5025309;28;20065;-51
2022/01/28 09:21:54;;;;;;;13.32;7.22;;;;;;;3.11;82.25;100508.09;5023942;28;20049;-51
2022/01/28 09:24:20;;;;;;;3.65;0.95;;;;;;;3.13;81.66;100501.31;5023673;28;20080;-47
2022/01/28 09:26:47;;;;;;;3.33;1.30;;;;;;;3.15;80.58;100517.56;5023048;28;20683;-56
2022/01/28 09:29:14;;;;;;;2.17;0.90;;;;;;;3.22;80.69;100520.25;5026574;28;20502;-49
2022/01/28 09:31:41;;;;;;;2.58;0.80;;;;;;;3.32;81.04;100517.88;5028203;28;20164;-48
2022/01/28 09:34:10;;;;;;;4.38;1.13;;;;;;;3.41;81.16;100524.84;5027437;28;20418;-57
2022/01/28 09:39:19;;;;;;;2.75;0.75;;;;;;;3.67;80.36;100535.56;5028756;28;20072;-57
2022/01/28 09:41:47;;;;;;;4.07;0.88;;;;;;;3.78;79.62;100541.72;5027954;28;20139;-48
2022/01/28 09:44:15;;;;;;;3.47;1.10;;;;;;;3.87;78.79;100538.44;5023051;28;20053;-51
2022/01/28 09:46:43;;;;;;;3.03;0.70;;;;;;;3.98;78.68;100552.28;5022359;28;20461;-49
2022/01/28 09:49:12;;;;;;;2.05;0.98;;;;;;;3.96;78.22;100553.97;5025494;28;20045;-51
2022/01/28 09:52:29;;;;;;;1.67;0.70;;;;;;;3.88;78.06;100568.38;5025550;28;20049;-48
2022/01/28 09:54:58;;;;;;;3.90;0.80;;;;;;;3.86;79.33;100573.47;5016343;28;20080;-51
2022/01/28 09:57:25;;;;;;;2.60;0.88;;;;;;;3.79;79.96;100576.78;5026319;28;20054;-52
2022/01/28 09:59:56;;;;;;;2.33;0.70;;;;;;;3.72;80.73;100585.22;5025223;28;20055;-50
2022/01/28 10:02:53;;;;;;;2.53;0.70;;;;;;;3.65;81.37;100585.94;5024581;28;20053;-49
2022/01/28 10:05:26;;;;;;;2.28;0.73;;;;;;;3.64;82.13;100599.56;5027396;28;20426;-50
2022/01/28 10:08:10;;;;;;;3.58;0.98;;;;;;;3.57;81.95;100606.28;5026273;28;20486;-48
2022/01/28 10:10:55;;;;;;;3.88;1.40;;;;;;;3.52;82.60;100613.03;5031804;28;20103;-48
2022/01/28 10:13:27;;;;;;;3.15;0.88;;;;;;;3.46;82.58;100605.22;5044186;28;20436;-47
2022/01/28 10:15:59;;;;;;;2.42;0.70;;;;;;;3.45;83.24;100621.44;5045987;28;20453;-50
2022/01/28 10:18:47;;;;;;;2.47;0.80;;;;;;;3.46;83.71;100624.03;5047039;28;20049;-48
2022/01/28 10:21:28;;;;;;;5.97;1.05;;;;;;;3.50;83.54;100630.06;5046624;28;20056;-48
2022/01/28 10:24:00;;;;;;;2.33;1.00;;;;;;;3.54;83.42;100634.41;5046582;28;20055;-50
2022/01/28 10:26:32;;;;;;;2.20;0.90;;;;;;;3.62;83.44;100635.41;5043764;28;20056;-51
2022/01/28 10:28:59;;;;;;;1.25;0.60;;;;;;;3.70;83.37;100639.00;5044889;28;20057;-50
2022/01/28 10:31:38;;;;;;;5.68;0.80;;;;;;;3.69;81.43;100650.09;5044357;28;20132;-48
2022/01/28 10:34:16;;;;;;;2.15;0.85;;;;;;;3.63;82.06;100652.53;5045749;28;20068;-51
2022/01/28 10:36:46;;;;;;;5.05;1.25;;;;;;;3.60;81.82;100647.34;5042905;28;20053;-48
2022/01/28 10:39:18;;;;;;;1.60;0.50;;;;;;;3.58;81.77;100653.28;5040731;28;20049;-51
2022/01/28 10:41:49;;;;;;;2.28;0.40;;;;;;;3.56;81.60;100671.19;5045374;28;20655;-53
2022/01/28 10:44:16;;;;;;;1.10;0.40;;;;;;;3.58;81.28;100668.66;5044117;28;20056;-48
2022/01/28 10:46:51;;;;;;;3.60;0.70;;;;;;;3.61;81.05;100684.97;5042343;28;20055;-51
2022/01/28 10:49:18;;;;;;;2.50;0.55;;;;;;;3.65;81.57;100686.78;5044372;28;20478;-55
2022/01/28 10:51:49;;;;;;;2.33;0.75;;;;;;;3.68;81.69;100686.84;5041496;28;20553;-51
2022/01/28 10:54:22;;;;;;;2.75;1.02;;;;;;;3.71;82.32;100698.84;5043475;28;20491;-51
2022/01/28 10:56:53;;;;;;;4.13;0.98;;;;;;;3.73;81.97;100703.16;5041104;28;20075;-53
2022/01/28 10:59:22;;;;;;;3.85;0.63;;;;;;;3.76;81.97;100700.66;5042163;28;20056;-52
2022/01/28 11:01:52;;;;;;;4.30;1.02;;;;;;;3.77;82.03;100717.78;5042995;28;20051;-48
2022/01/28 11:04:20;;;;;;;4.65;0.90;;;;;;;3.72;82.03;100719.38;5042892;28;20061;-53
2022/01/28 11:06:51;;;;;;;2.90;0.77;;;;;;;3.68;81.92;100727.84;5041629;28;20173;-51
2022/01/28 11:09:20;;;;;;;2.28;0.55;;;;;;;3.58;82.26;100720.78;5043590;28;20053;-49
2022/01/28 11:11:47;;;;;;;1.70;0.50;;;;;;;3.51;81.76;100712.94;5029345;28;20145;-49
2022/01/28 11:14:14;;;;;;;2.03;0.60;;;;;;;3.51;82.01;100712.94;5030691;28;20081;-51
2022/01/28 11:16:41;;;;;;;2.03;0.70;;;;;;;3.58;82.56;100723.34;5033153;28;20131;-52
2022/01/28 11:19:18;;;;;;;4.95;0.70;;;;;;;3.66;81.20;100728.66;5031409;28;20044;-49
2022/01/28 11:22:03;;;;;;;1.58;0.70;;;;;;;3.67;79.90;100746.63;5030641;28;20784;-49
2022/01/28 11:24:42;;;;;;;3.03;0.73;;;;;;;3.72;79.76;100745.03;5030340;28;20132;-52
2022/01/28 11:27:12;;;;;;;6.30;1.13;;;;;;;3.72;78.92;100742.47;5027620;28;20135;-50
2022/01/28 11:29:39;;;;;;;4.13;0.80;;;;;;;3.82;79.06;100745.19;5029679;28;20533;-47
2022/01/28 11:32:15;;;;;;;2.22;0.50;;;;;;;3.85;77.79;100755.50;5029004;28;20046;-50
2022/01/28 11:34:57;;;;;;;2.05;0.60;;;;;;;3.89;76.12;100762.44;5032187;28;20056;-47
2022/01/28 11:37:32;;;;;;;4.22;0.80;;;;;;;3.94;76.46;100776.19;5027574;28;20494;-52
2022/01/28 11:40:11;;;;;;;4.30;0.60;;;;;;;3.92;76.93;100790.69;5025726;28;20124;-48
2022/01/28 11:42:42;;;;;;;3.33;0.70;;;;;;;3.87;77.95;100794.88;5027514;28;20558;-53
2022/01/28 11:45:11;;;;;;;2.03;0.80;;;;;;;3.82;78.38;100801.59;5028034;28;20169;-53
2022/01/28 11:47:43;;;;;;;4.80;1.33;;;;;;;3.75;78.51;100814.31;5033760;28;20049;-54
2022/01/28 11:50:12;;;;;;;4.38;1.73;;;;;;;3.68;79.47;100809.88;5030465;28;20037;-56
2022/01/28 11:52:43;;;;;;;2.10;0.80;;;;;;;3.55;79.47;100824.94;5034554;28;20434;-55
2022/01/28 11:55:32;;;;;;;3.10;1.27;;;;;;;3.48;79.94;100837.63;5034557;28;20486;-54
2022/01/28 11:58:00;;;;;;;4.13;1.40;;;;;;;3.46;80.36;100839.31;5024033;28;20050;-56
2022/01/28 12:00:30;;;;;;;3.55;1.20;;;;;;;3.44;80.41;100845.22;5032831;28;20076;-46
2022/01/28 12:02:57;;;;;;;8.18;2.70;;;;;;;3.41;81.27;100840.03;5031323;28;20406;-46
2022/01/28 12:05:42;;;;;;;4.30;1.33;;;;;;;3.37;81.15;100853.63;5034044;28;20388;-51
2022/01/28 12:08:15;;;;;;;4.80;1.30;;;;;;;3.29;80.78;100865.38;5021404;28;20050;-52
2022/01/28 12:10:45;;;;;;;4.65;1.60;;;;;;;3.26;80.71;100865.31;5027680;28;20045;-52
2022/01/28 12:13:17;;;;;;;3.40;1.35;;;;;;;3.20;80.73;100867.72;5028948;28;20053;-53
2022/01/28 12:16:10;;;;;;;3.65;1.33;;;;;;;3.14;80.66;100877.00;5029145;28;20053;-52
2022/01/28 12:18:53;;;;;;;5.18;1.08;;;;;;;3.07;79.52;100882.78;5027497;28;20104;-45
2022/01/28 12:21:23;;;;;;;7.07;1.60;;;;;;;3.04;79.83;100877.59;5027755;28;20053;-49
2022/01/28 12:23:52;;;;;;;3.33;1.02;;;;;;;3.02;78.40;100892.06;5026776;28;20057;-53
2022/01/28 12:26:20;;;;;;;2.83;1.10;;;;;;;3.01;78.70;100904.81;5027159;28;20049;-49
2022/01/28 12:28:54;;;;;;;4.00;1.30;;;;;;;2.99;77.52;100902.22;5025128;28;20045;-55
2022/01/28 12:31:24;;;;;;;4.95;1.45;;;;;;;2.96;76.46;100899.59;5025773;28;20053;-55
2022/01/28 12:33:54;;;;;;;2.05;0.80;;;;;;;2.92;75.34;100897.78;5026962;28;20056;-52
2022/01/28 12:36:23;;;;;;;4.65;1.27;;;;;;;2.89;75.59;100910.50;5027625;28;20629;-51
2022/01/28 12:39:09;;;;;;;6.07;2.05;;;;;;;2.85;74.97;100908.69;5026107;28;20042;-50
2022/01/28 12:41:49;;;;;;;3.80;1.08;;;;;;;2.83;74.40;100920.59;5024955;28;20115;-52